sensor_id;sensor_type;location;lat;lon;timestamp;pressure;altitude;pressure_sealevel;temperature;humidity
58785;BME280;44557;51.862;19.378;2022-07-21T00:00:31;99546.73;;;24.59;45.23
58785;BME280;44557;51.862;19.378;2022-07-21T00:01:41;99545.36;;;24.75;44.78
58785;BME280;44557;51.862;19.378;2022-07-21T00:02:43;99544.45;;;24.87;44.69
58785;BME280;44557;51.862;19.378;2022-07-21T00:03:45;99544.27;;;24.92;44.47
58785;BME280;44557;51.862;19.378;2022-07-21T00:04:46;99547.16;;;24.77;44.89
58785;BME280;44557;51.862;19.378;2022-07-21T00:05:48;99547.23;;;24.58;45.36
58785;BME280;44557;51.862;19.378;2022-07-21T00:06:50;99547.45;;;24.63;45.19
58785;BME280;44557;51.862;19.378;2022-07-21T00:07:53;99546.11;;;24.58;45.05
58785;BME280;44557;51.862;19.378;2022-07-21T00:08:54;99545.75;;;24.34;45.92
58785;BME280;44557;51.862;19.378;2022-07-21T00:09:56;99551.91;;;24.40;45.61
58785;BME280;44557;51.862;19.378;2022-07-21T00:10:57;99554.50;;;24.43;45.53
58785;BME280;44557;51.862;19.378;2022-07-21T00:11:59;99556.55;;;24.33;45.98
58785;BME280;44557;51.862;19.378;2022-07-21T00:13:00;99553.60;;;24.43;45.81
58785;BME280;44557;51.862;19.378;2022-07-21T00:14:03;99551.54;;;24.45;46.22
58785;BME280;44557;51.862;19.378;2022-07-21T00:15:06;99551.91;;;24.62;45.74
58785;BME280;44557;51.862;19.378;2022-07-21T00:16:08;99553.36;;;24.25;46.42
58785;BME280;44557;51.862;19.378;2022-07-21T00:17:09;99556.40;;;24.51;46.03
58785;BME280;44557;51.862;19.378;2022-07-21T00:18:11;99554.30;;;24.45;46.24
58785;BME280;44557;51.862;19.378;2022-07-21T00:19:13;99556.23;;;24.44;46.34
58785;BME280;44557;51.862;19.378;2022-07-21T00:20:16;99557.63;;;24.40;46.46
58785;BME280;44557;51.862;19.378;2022-07-21T00:21:18;99560.80;;;24.26;46.69
58785;BME280;44557;51.862;19.378;2022-07-21T00:22:20;99556.13;;;24.23;46.88
58785;BME280;44557;51.862;19.378;2022-07-21T00:23:23;99560.02;;;24.10;47.30
58785;BME280;44557;51.862;19.378;2022-07-21T00:24:24;99562.34;;;24.07;47.46
58785;BME280;44557;51.862;19.378;2022-07-21T00:25:26;99559.75;;;24.07;47.40
58785;BME280;44557;51.862;19.378;2022-07-21T00:26:27;99558.77;;;24.24;47.23
58785;BME280;44557;51.862;19.378;2022-07-21T00:27:29;99558.61;;;24.16;47.28
58785;BME280;44557;51.862;19.378;2022-07-21T00:28:31;99557.34;;;24.10;47.76
58785;BME280;44557;51.862;19.378;2022-07-21T00:29:32;99558.30;;;24.15;47.41
58785;BME280;44557;51.862;19.378;2022-07-21T00:30:34;99559.30;;;24.00;47.97
58785;BME280;44557;51.862;19.378;2022-07-21T00:31:35;99554.05;;;24.10;47.65
58785;BME280;44557;51.862;19.378;2022-07-21T00:32:37;99552.42;;;24.07;47.83
58785;BME280;44557;51.862;19.378;2022-07-21T00:33:39;99555.55;;;24.20;47.37
58785;BME280;44557;51.862;19.378;2022-07-21T00:34:40;99555.94;;;24.28;47.34
58785;BME280;44557;51.862;19.378;2022-07-21T00:35:42;99554.30;;;24.18;47.53
58785;BME280;44557;51.862;19.378;2022-07-21T00:36:43;99558.66;;;24.25;47.50
58785;BME280;44557;51.862;19.378;2022-07-21T00:37:45;99560.39;;;24.11;47.66
58785;BME280;44557;51.862;19.378;2022-07-21T00:38:47;99560.91;;;24.25;47.53
58785;BME280;44557;51.862;19.378;2022-07-21T00:39:53;99561.82;;;24.12;47.78
58785;BME280;44557;51.862;19.378;2022-07-21T00:40:55;99558.75;;;24.20;47.76
58785;BME280;44557;51.862;19.378;2022-07-21T00:41:56;99559.09;;;24.28;47.48
58785;BME280;44557;51.862;19.378;2022-07-21T00:42:58;99561.14;;;24.25;47.56
58785;BME280;44557;51.862;19.378;2022-07-21T00:44:00;99559.73;;;24.20;47.79
58785;BME280;44557;51.862;19.378;2022-07-21T00:45:05;99564.14;;;24.09;48.07
58785;BME280;44557;51.862;19.378;2022-07-21T00:46:07;99560.88;;;23.93;48.24
58785;BME280;44557;51.862;19.378;2022-07-21T00:47:10;99563.92;;;23.90;48.60
58785;BME280;44557;51.862;19.378;2022-07-21T00:48:11;99564.19;;;23.92;48.50
58785;BME280;44557;51.862;19.378;2022-07-21T00:49:13;99563.52;;;23.89;48.67
58785;BME280;44557;51.862;19.378;2022-07-21T00:50:17;99564.43;;;23.92;48.71
58785;BME280;44557;51.862;19.378;2022-07-21T00:51:19;99562.84;;;23.96;48.42
58785;BME280;44557;51.862;19.378;2022-07-21T00:52:21;99566.81;;;23.94;48.57
58785;BME280;44557;51.862;19.378;2022-07-21T00:53:23;99568.77;;;23.89;48.60
58785;BME280;44557;51.862;19.378;2022-07-21T00:54:24;99567.73;;;23.84;48.75
58785;BME280;44557;51.862;19.378;2022-07-21T00:55:26;99569.20;;;23.60;49.52
58785;BME280;44557;51.862;19.378;2022-07-21T00:56:27;99570.91;;;23.59;49.72
58785;BME280;44557;51.862;19.378;2022-07-21T00:57:29;99568.34;;;23.72;49.18
58785;BME280;44557;51.862;19.378;2022-07-21T00:58:31;99570.35;;;23.86;48.88
58785;BME280;44557;51.862;19.378;2022-07-21T00:59:32;99572.70;;;23.75;49.16
58785;BME280;44557;51.862;19.378;2022-07-21T01:00:35;99567.86;;;23.68;49.35
58785;BME280;44557;51.862;19.378;2022-07-21T01:01:37;99564.80;;;23.77;49.10
58785;BME280;44557;51.862;19.378;2022-07-21T01:02:39;99568.51;;;23.55;49.69
58785;BME280;44557;51.862;19.378;2022-07-21T01:03:41;99571.05;;;23.65;49.61
58785;BME280;44557;51.862;19.378;2022-07-21T01:04:43;99570.44;;;23.54;49.79
58785;BME280;44557;51.862;19.378;2022-07-21T01:05:44;99566.80;;;23.64;49.66
58785;BME280;44557;51.862;19.378;2022-07-21T01:06:47;99571.15;;;23.73;49.44
58785;BME280;44557;51.862;19.378;2022-07-21T01:07:51;99570.61;;;23.49;49.89
58785;BME280;44557;51.862;19.378;2022-07-21T01:08:53;99575.30;;;23.42;50.20
58785;BME280;44557;51.862;19.378;2022-07-21T01:09:55;99570.20;;;23.50;50.16
58785;BME280;44557;51.862;19.378;2022-07-21T01:10:57;99573.33;;;23.41;50.19
58785;BME280;44557;51.862;19.378;2022-07-21T01:11:59;99570.07;;;23.38;50.43
58785;BME280;44557;51.862;19.378;2022-07-21T01:13:01;99570.16;;;23.47;50.45
58785;BME280;44557;51.862;19.378;2022-07-21T01:14:03;99571.17;;;23.58;50.01
58785;BME280;44557;51.862;19.378;2022-07-21T01:15:10;99570.98;;;23.60;50.19
58785;BME280;44557;51.862;19.378;2022-07-21T01:16:12;99573.84;;;23.57;50.14
58785;BME280;44557;51.862;19.378;2022-07-21T01:17:14;99570.40;;;23.47;50.40
58785;BME280;44557;51.862;19.378;2022-07-21T01:18:16;99574.31;;;23.48;50.38
58785;BME280;44557;51.862;19.378;2022-07-21T01:19:18;99577.33;;;23.37;50.68
58785;BME280;44557;51.862;19.378;2022-07-21T01:20:22;99572.26;;;23.41;50.73
58785;BME280;44557;51.862;19.378;2022-07-21T01:21:47;99573.70;;;23.37;50.90
58785;BME280;44557;51.862;19.378;2022-07-21T01:22:52;99574.77;;;23.30;51.08
58785;BME280;44557;51.862;19.378;2022-07-21T01:23:54;99571.73;;;23.29;51.11
58785;BME280;44557;51.862;19.378;2022-07-21T01:24:56;99576.61;;;23.20;51.38
58785;BME280;44557;51.862;19.378;2022-07-21T01:25:58;99567.30;;;23.21;51.28
58785;BME280;44557;51.862;19.378;2022-07-21T01:26:59;99568.48;;;23.52;50.34
58785;BME280;44557;51.862;19.378;2022-07-21T01:28:01;99571.55;;;23.30;51.05
58785;BME280;44557;51.862;19.378;2022-07-21T01:29:02;99575.54;;;23.28;51.27
58785;BME280;44557;51.862;19.378;2022-07-21T01:30:06;99576.27;;;23.27;51.39
58785;BME280;44557;51.862;19.378;2022-07-21T01:31:09;99571.98;;;23.04;51.75
58785;BME280;44557;51.862;19.378;2022-07-21T01:32:10;99572.08;;;23.13;51.62
58785;BME280;44557;51.862;19.378;2022-07-21T01:33:12;99575.33;;;23.15;51.45
58785;BME280;44557;51.862;19.378;2022-07-21T01:34:14;99574.52;;;23.16;51.45
58785;BME280;44557;51.862;19.378;2022-07-21T01:35:16;99574.27;;;23.25;51.62
58785;BME280;44557;51.862;19.378;2022-07-21T01:36:17;99576.93;;;23.25;51.42
58785;BME280;44557;51.862;19.378;2022-07-21T01:37:21;99573.17;;;23.34;51.05
58785;BME280;44557;51.862;19.378;2022-07-21T01:38:23;99572.92;;;23.46;50.55
58785;BME280;44557;51.862;19.378;2022-07-21T01:39:44;99575.39;;;23.32;51.19
58785;BME280;44557;51.862;19.378;2022-07-21T01:41:06;99575.83;;;23.29;51.36
58785;BME280;44557;51.862;19.378;2022-07-21T01:42:26;99575.78;;;23.43;50.71
58785;BME280;44557;51.862;19.378;2022-07-21T01:43:28;99576.46;;;23.15;51.49
58785;BME280;44557;51.862;19.378;2022-07-21T01:44:29;99580.50;;;23.28;51.08
58785;BME280;44557;51.862;19.378;2022-07-21T01:45:31;99577.77;;;23.23;51.19
58785;BME280;44557;51.862;19.378;2022-07-21T01:46:36;99577.31;;;23.22;51.37
58785;BME280;44557;51.862;19.378;2022-07-21T01:47:38;99576.24;;;23.29;51.19
58785;BME280;44557;51.862;19.378;2022-07-21T01:48:43;99577.52;;;23.29;51.06
58785;BME280;44557;51.862;19.378;2022-07-21T01:49:45;99575.96;;;23.30;51.14
58785;BME280;44557;51.862;19.378;2022-07-21T01:50:46;99571.48;;;23.10;51.44
58785;BME280;44557;51.862;19.378;2022-07-21T01:51:48;99571.01;;;23.24;51.29
58785;BME280;44557;51.862;19.378;2022-07-21T01:52:51;99568.94;;;23.28;51.00
58785;BME280;44557;51.862;19.378;2022-07-21T01:53:53;99564.05;;;23.22;51.35
58785;BME280;44557;51.862;19.378;2022-07-21T01:54:54;99567.28;;;23.26;51.29
58785;BME280;44557;51.862;19.378;2022-07-21T01:55:56;99566.29;;;23.27;51.15
58785;BME280;44557;51.862;19.378;2022-07-21T01:56:57;99557.98;;;23.30;51.02
58785;BME280;44557;51.862;19.378;2022-07-21T01:58:01;99563.84;;;23.15;51.20
58785;BME280;44557;51.862;19.378;2022-07-21T01:59:03;99562.89;;;23.20;51.25
58785;BME280;44557;51.862;19.378;2022-07-21T02:00:06;99557.52;;;23.22;51.13
58785;BME280;44557;51.862;19.378;2022-07-21T02:01:07;99558.64;;;23.23;50.96
58785;BME280;44557;51.862;19.378;2022-07-21T02:02:09;99557.38;;;23.17;50.83
58785;BME280;44557;51.862;19.378;2022-07-21T02:03:10;99552.59;;;23.25;50.89
58785;BME280;44557;51.862;19.378;2022-07-21T02:04:12;99557.14;;;23.13;51.18
58785;BME280;44557;51.862;19.378;2022-07-21T02:05:14;99548.02;;;23.15;50.87
58785;BME280;44557;51.862;19.378;2022-07-21T02:06:15;99551.64;;;23.15;51.12
58785;BME280;44557;51.862;19.378;2022-07-21T02:07:17;99553.24;;;23.04;51.33
58785;BME280;44557;51.862;19.378;2022-07-21T02:08:19;99551.98;;;22.99;51.41
58785;BME280;44557;51.862;19.378;2022-07-21T02:09:20;99547.11;;;22.97;51.47
58785;BME280;44557;51.862;19.378;2022-07-21T02:10:22;99550.61;;;22.99;51.58
58785;BME280;44557;51.862;19.378;2022-07-21T02:11:24;99548.42;;;22.95;51.47
58785;BME280;44557;51.862;19.378;2022-07-21T02:12:25;99543.44;;;22.91;51.70
58785;BME280;44557;51.862;19.378;2022-07-21T02:13:27;99546.58;;;22.85;51.88
58785;BME280;44557;51.862;19.378;2022-07-21T02:14:29;99543.65;;;22.76;51.86
58785;BME280;44557;51.862;19.378;2022-07-21T02:15:30;99545.64;;;22.82;51.80
58785;BME280;44557;51.862;19.378;2022-07-21T02:16:32;99550.52;;;22.77;51.96
58785;BME280;44557;51.862;19.378;2022-07-21T02:17:35;99550.04;;;22.73;52.16
58785;BME280;44557;51.862;19.378;2022-07-21T02:18:36;99552.80;;;22.82;51.88
58785;BME280;44557;51.862;19.378;2022-07-21T02:19:38;99552.83;;;22.79;51.96
58785;BME280;44557;51.862;19.378;2022-07-21T02:20:40;99549.45;;;22.68;52.06
58785;BME280;44557;51.862;19.378;2022-07-21T02:21:42;99553.24;;;22.61;52.45
58785;BME280;44557;51.862;19.378;2022-07-21T02:22:43;99557.44;;;22.60;52.42
58785;BME280;44557;51.862;19.378;2022-07-21T02:23:46;99557.17;;;22.67;52.09
58785;BME280;44557;51.862;19.378;2022-07-21T02:24:48;99552.05;;;22.71;52.23
58785;BME280;44557;51.862;19.378;2022-07-21T02:25:50;99555.60;;;22.71;52.12
58785;BME280;44557;51.862;19.378;2022-07-21T02:26:51;99556.20;;;22.68;52.41
58785;BME280;44557;51.862;19.378;2022-07-21T02:27:53;99560.59;;;22.63;52.18
58785;BME280;44557;51.862;19.378;2022-07-21T02:28:54;99557.44;;;22.60;52.41
58785;BME280;44557;51.862;19.378;2022-07-21T02:29:56;99556.80;;;22.46;52.73
58785;BME280;44557;51.862;19.378;2022-07-21T02:30:57;99556.54;;;22.54;52.71
58785;BME280;44557;51.862;19.378;2022-07-21T02:31:59;99555.50;;;22.67;52.42
58785;BME280;44557;51.862;19.378;2022-07-21T02:33:00;99558.92;;;22.74;52.07
58785;BME280;44557;51.862;19.378;2022-07-21T02:34:02;99561.52;;;22.73;51.98
58785;BME280;44557;51.862;19.378;2022-07-21T02:35:04;99557.70;;;22.65;52.16
58785;BME280;44557;51.862;19.378;2022-07-21T02:36:07;99558.45;;;22.73;52.23
58785;BME280;44557;51.862;19.378;2022-07-21T02:37:09;99565.00;;;22.76;52.02
58785;BME280;44557;51.862;19.378;2022-07-21T02:38:11;99563.45;;;22.61;52.34
58785;BME280;44557;51.862;19.378;2022-07-21T02:39:12;99565.88;;;22.71;52.14
58785;BME280;44557;51.862;19.378;2022-07-21T02:40:14;99567.73;;;22.58;52.43
58785;BME280;44557;51.862;19.378;2022-07-21T02:41:15;99566.96;;;22.61;52.27
58785;BME280;44557;51.862;19.378;2022-07-21T02:42:17;99570.16;;;22.55;52.49
58785;BME280;44557;51.862;19.378;2022-07-21T02:43:18;99567.80;;;22.59;52.50
58785;BME280;44557;51.862;19.378;2022-07-21T02:44:20;99566.58;;;22.61;52.25
58785;BME280;44557;51.862;19.378;2022-07-21T02:45:22;99567.46;;;22.72;51.94
58785;BME280;44557;51.862;19.378;2022-07-21T02:46:23;99566.99;;;22.93;51.46
58785;BME280;44557;51.862;19.378;2022-07-21T02:47:24;99569.89;;;22.64;52.28
58785;BME280;44557;51.862;19.378;2022-07-21T02:48:26;99565.35;;;22.73;51.98
58785;BME280;44557;51.862;19.378;2022-07-21T02:49:27;99567.10;;;22.70;52.09
58785;BME280;44557;51.862;19.378;2022-07-21T02:50:32;99563.58;;;22.63;52.31
58785;BME280;44557;51.862;19.378;2022-07-21T02:51:34;99563.14;;;22.71;52.14
58785;BME280;44557;51.862;19.378;2022-07-21T02:52:36;99563.19;;;22.68;52.22
58785;BME280;44557;51.862;19.378;2022-07-21T02:53:38;99560.79;;;22.61;52.39
58785;BME280;44557;51.862;19.378;2022-07-21T02:54:39;99558.48;;;22.72;52.04
58785;BME280;44557;51.862;19.378;2022-07-21T02:55:41;99556.73;;;22.81;52.03
58785;BME280;44557;51.862;19.378;2022-07-21T02:56:42;99556.20;;;22.63;52.48
58785;BME280;44557;51.862;19.378;2022-07-21T02:57:44;99556.16;;;22.71;52.29
58785;BME280;44557;51.862;19.378;2022-07-21T02:58:45;99554.98;;;22.75;52.25
58785;BME280;44557;51.862;19.378;2022-07-21T02:59:47;99552.81;;;22.70;52.42
58785;BME280;44557;51.862;19.378;2022-07-21T03:00:59;99554.65;;;22.70;52.57
58785;BME280;44557;51.862;19.378;2022-07-21T03:02:01;99553.45;;;22.64;52.53
58785;BME280;44557;51.862;19.378;2022-07-21T03:03:03;99550.00;;;22.64;52.74
58785;BME280;44557;51.862;19.378;2022-07-21T03:04:05;99550.00;;;22.51;53.18
58785;BME280;44557;51.862;19.378;2022-07-21T03:05:07;99550.39;;;22.57;53.04
58785;BME280;44557;51.862;19.378;2022-07-21T03:06:09;99550.50;;;22.56;53.15
58785;BME280;44557;51.862;19.378;2022-07-21T03:07:10;99550.95;;;22.46;53.50
58785;BME280;44557;51.862;19.378;2022-07-21T03:08:15;99549.77;;;22.55;53.52
58785;BME280;44557;51.862;19.378;2022-07-21T03:09:16;99550.59;;;22.43;53.59
58785;BME280;44557;51.862;19.378;2022-07-21T03:10:18;99547.14;;;22.43;53.77
58785;BME280;44557;51.862;19.378;2022-07-21T03:11:19;99544.80;;;22.57;53.49
58785;BME280;44557;51.862;19.378;2022-07-21T03:12:21;99546.08;;;22.56;53.37
58785;BME280;44557;51.862;19.378;2022-07-21T03:13:23;99543.20;;;22.63;53.25
58785;BME280;44557;51.862;19.378;2022-07-21T03:14:25;99542.11;;;22.35;54.06
58785;BME280;44557;51.862;19.378;2022-07-21T03:15:26;99542.56;;;22.49;53.85
58785;BME280;44557;51.862;19.378;2022-07-21T03:16:28;99543.03;;;22.44;53.90
58785;BME280;44557;51.862;19.378;2022-07-21T03:17:30;99543.56;;;22.40;53.92
58785;BME280;44557;51.862;19.378;2022-07-21T03:18:31;99539.98;;;22.44;53.81
58785;BME280;44557;51.862;19.378;2022-07-21T03:19:33;99546.30;;;22.34;54.36
58785;BME280;44557;51.862;19.378;2022-07-21T03:20:36;99545.05;;;22.43;54.00
58785;BME280;44557;51.862;19.378;2022-07-21T03:21:38;99545.89;;;22.47;54.03
58785;BME280;44557;51.862;19.378;2022-07-21T03:22:40;99549.98;;;22.34;54.24
58785;BME280;44557;51.862;19.378;2022-07-21T03:23:42;99543.19;;;22.27;54.53
58785;BME280;44557;51.862;19.378;2022-07-21T03:24:46;99542.73;;;22.42;54.04
58785;BME280;44557;51.862;19.378;2022-07-21T03:25:48;99543.58;;;22.34;54.39
58785;BME280;44557;51.862;19.378;2022-07-21T03:26:49;99545.02;;;22.22;54.74
58785;BME280;44557;51.862;19.378;2022-07-21T03:27:51;99543.45;;;22.19;54.83
58785;BME280;44557;51.862;19.378;2022-07-21T03:28:53;99548.17;;;22.19;54.75
58785;BME280;44557;51.862;19.378;2022-07-21T03:29:54;99546.23;;;22.21;54.90
58785;BME280;44557;51.862;19.378;2022-07-21T03:30:57;99545.75;;;22.26;54.68
58785;BME280;44557;51.862;19.378;2022-07-21T03:31:58;99543.52;;;22.27;54.79
58785;BME280;44557;51.862;19.378;2022-07-21T03:33:00;99541.53;;;22.31;54.60
58785;BME280;44557;51.862;19.378;2022-07-21T03:34:01;99538.87;;;22.38;54.34
58785;BME280;44557;51.862;19.378;2022-07-21T03:35:05;99537.59;;;22.38;54.20
58785;BME280;44557;51.862;19.378;2022-07-21T03:36:07;99536.76;;;22.40;54.45
58785;BME280;44557;51.862;19.378;2022-07-21T03:37:09;99539.14;;;22.41;54.45
58785;BME280;44557;51.862;19.378;2022-07-21T03:38:10;99537.44;;;22.42;54.37
58785;BME280;44557;51.862;19.378;2022-07-21T03:39:12;99538.86;;;22.32;54.64
58785;BME280;44557;51.862;19.378;2022-07-21T03:40:16;99538.29;;;22.46;54.13
58785;BME280;44557;51.862;19.378;2022-07-21T03:41:18;99538.16;;;22.37;54.58
58785;BME280;44557;51.862;19.378;2022-07-21T03:42:19;99540.89;;;22.31;54.58
58785;BME280;44557;51.862;19.378;2022-07-21T03:43:21;99534.85;;;22.32;54.57
58785;BME280;44557;51.862;19.378;2022-07-21T03:44:23;99537.21;;;22.47;54.31
58785;BME280;44557;51.862;19.378;2022-07-21T03:45:25;99537.48;;;22.59;53.72
58785;BME280;44557;51.862;19.378;2022-07-21T03:46:27;99536.31;;;22.49;54.04
58785;BME280;44557;51.862;19.378;2022-07-21T03:47:29;99533.41;;;22.44;54.25
58785;BME280;44557;51.862;19.378;2022-07-21T03:48:30;99529.71;;;22.56;54.01
58785;BME280;44557;51.862;19.378;2022-07-21T03:49:32;99534.86;;;22.49;54.09
58785;BME280;44557;51.862;19.378;2022-07-21T03:50:36;99540.00;;;22.37;54.51
58785;BME280;44557;51.862;19.378;2022-07-21T03:51:38;99539.14;;;22.42;54.19
58785;BME280;44557;51.862;19.378;2022-07-21T03:52:40;99534.34;;;22.52;54.00
58785;BME280;44557;51.862;19.378;2022-07-21T03:53:41;99534.80;;;22.67;53.75
58785;BME280;44557;51.862;19.378;2022-07-21T03:54:43;99533.10;;;22.55;53.87
58785;BME280;44557;51.862;19.378;2022-07-21T03:55:44;99535.17;;;22.45;54.48
58785;BME280;44557;51.862;19.378;2022-07-21T03:56:47;99534.19;;;22.39;54.48
58785;BME280;44557;51.862;19.378;2022-07-21T03:58:03;99536.02;;;22.47;54.27
58785;BME280;44557;51.862;19.378;2022-07-21T03:59:05;99539.48;;;22.53;53.71
58785;BME280;44557;51.862;19.378;2022-07-21T04:00:10;99538.71;;;22.56;53.87
58785;BME280;44557;51.862;19.378;2022-07-21T04:01:12;99539.65;;;22.58;53.67
58785;BME280;44557;51.862;19.378;2022-07-21T04:02:14;99539.33;;;22.51;53.97
58785;BME280;44557;51.862;19.378;2022-07-21T04:03:15;99538.17;;;22.48;54.02
58785;BME280;44557;51.862;19.378;2022-07-21T04:04:17;99541.13;;;22.55;53.90
58785;BME280;44557;51.862;19.378;2022-07-21T04:05:19;99537.78;;;22.59;53.89
58785;BME280;44557;51.862;19.378;2022-07-21T04:06:20;99536.28;;;22.63;53.70
58785;BME280;44557;51.862;19.378;2022-07-21T04:07:22;99536.56;;;22.61;53.84
58785;BME280;44557;51.862;19.378;2022-07-21T04:08:23;99537.33;;;22.52;53.91
58785;BME280;44557;51.862;19.378;2022-07-21T04:09:26;99537.27;;;22.54;53.97
58785;BME280;44557;51.862;19.378;2022-07-21T04:10:30;99539.25;;;22.51;54.01
58785;BME280;44557;51.862;19.378;2022-07-21T04:11:32;99536.77;;;22.49;54.31
58785;BME280;44557;51.862;19.378;2022-07-21T04:12:34;99539.33;;;22.57;54.25
58785;BME280;44557;51.862;19.378;2022-07-21T04:13:35;99542.06;;;22.70;53.87
58785;BME280;44557;51.862;19.378;2022-07-21T04:14:37;99539.34;;;22.63;53.74
58785;BME280;44557;51.862;19.378;2022-07-21T04:15:39;99540.86;;;22.56;53.91
58785;BME280;44557;51.862;19.378;2022-07-21T04:16:40;99540.31;;;22.56;54.24
58785;BME280;44557;51.862;19.378;2022-07-21T04:17:43;99542.98;;;22.60;53.98
58785;BME280;44557;51.862;19.378;2022-07-21T04:18:44;99541.35;;;22.63;53.77
58785;BME280;44557;51.862;19.378;2022-07-21T04:19:46;99540.08;;;22.56;54.11
58785;BME280;44557;51.862;19.378;2022-07-21T04:20:48;99539.16;;;22.70;53.94
58785;BME280;44557;51.862;19.378;2022-07-21T04:21:49;99541.98;;;22.63;53.90
58785;BME280;44557;51.862;19.378;2022-07-21T04:22:51;99537.86;;;22.66;53.85
58785;BME280;44557;51.862;19.378;2022-07-21T04:23:53;99538.20;;;22.59;54.09
58785;BME280;44557;51.862;19.378;2022-07-21T04:24:55;99535.82;;;22.50;54.17
58785;BME280;44557;51.862;19.378;2022-07-21T04:25:56;99538.56;;;22.49;54.45
58785;BME280;44557;51.862;19.378;2022-07-21T04:26:58;99536.48;;;22.48;54.45
58785;BME280;44557;51.862;19.378;2022-07-21T04:27:59;99536.06;;;22.55;54.25
58785;BME280;44557;51.862;19.378;2022-07-21T04:29:01;99539.54;;;22.54;54.27
58785;BME280;44557;51.862;19.378;2022-07-21T04:30:05;99534.78;;;22.56;53.89
58785;BME280;44557;51.862;19.378;2022-07-21T04:31:07;99535.73;;;22.57;53.86
58785;BME280;44557;51.862;19.378;2022-07-21T04:32:09;99532.27;;;22.58;53.86
58785;BME280;44557;51.862;19.378;2022-07-21T04:33:11;99532.36;;;22.63;53.93
58785;BME280;44557;51.862;19.378;2022-07-21T04:34:13;99532.45;;;22.64;53.77
58785;BME280;44557;51.862;19.378;2022-07-21T04:35:15;99529.41;;;22.73;53.41
58785;BME280;44557;51.862;19.378;2022-07-21T04:36:17;99532.52;;;22.79;53.53
58785;BME280;44557;51.862;19.378;2022-07-21T04:37:18;99534.13;;;22.68;53.62
58785;BME280;44557;51.862;19.378;2022-07-21T04:38:20;99530.88;;;22.65;53.67
58785;BME280;44557;51.862;19.378;2022-07-21T04:39:21;99533.70;;;22.65;53.77
58785;BME280;44557;51.862;19.378;2022-07-21T04:40:23;99530.16;;;22.71;53.67
58785;BME280;44557;51.862;19.378;2022-07-21T04:41:24;99535.40;;;22.80;53.67
58785;BME280;44557;51.862;19.378;2022-07-21T04:42:27;99533.69;;;22.87;53.10
58785;BME280;44557;51.862;19.378;2022-07-21T04:43:28;99532.30;;;22.94;52.86
58785;BME280;44557;51.862;19.378;2022-07-21T04:44:30;99529.55;;;22.96;52.95
58785;BME280;44557;51.862;19.378;2022-07-21T04:45:31;99538.70;;;23.00;53.22
58785;BME280;44557;51.862;19.378;2022-07-21T04:46:33;99541.92;;;23.06;53.07
58785;BME280;44557;51.862;19.378;2022-07-21T04:47:49;99546.95;;;23.07;52.86
58785;BME280;44557;51.862;19.378;2022-07-21T04:48:51;99549.10;;;23.09;52.54
58785;BME280;44557;51.862;19.378;2022-07-21T04:49:53;99543.92;;;23.06;52.80
58785;BME280;44557;51.862;19.378;2022-07-21T04:50:54;99553.00;;;23.11;52.91
58785;BME280;44557;51.862;19.378;2022-07-21T04:51:56;99551.02;;;22.98;52.70
58785;BME280;44557;51.862;19.378;2022-07-21T04:52:58;99551.48;;;23.06;52.86
58785;BME280;44557;51.862;19.378;2022-07-21T04:54:00;99552.40;;;23.12;52.96
58785;BME280;44557;51.862;19.378;2022-07-21T04:55:02;99556.45;;;23.10;52.52
58785;BME280;44557;51.862;19.378;2022-07-21T04:56:04;99553.30;;;23.06;52.62
58785;BME280;44557;51.862;19.378;2022-07-21T04:57:06;99553.06;;;23.00;53.18
58785;BME280;44557;51.862;19.378;2022-07-21T04:58:07;99549.45;;;23.16;53.07
58785;BME280;44557;51.862;19.378;2022-07-21T04:59:09;99549.89;;;23.19;53.01
58785;BME280;44557;51.862;19.378;2022-07-21T05:00:18;99549.50;;;23.09;52.97
58785;BME280;44557;51.862;19.378;2022-07-21T05:01:20;99550.37;;;23.14;52.96
58785;BME280;44557;51.862;19.378;2022-07-21T05:02:21;99546.63;;;23.21;52.89
58785;BME280;44557;51.862;19.378;2022-07-21T05:03:23;99547.35;;;23.26;52.94
58785;BME280;44557;51.862;19.378;2022-07-21T05:04:25;99548.52;;;23.19;52.91
58785;BME280;44557;51.862;19.378;2022-07-21T05:05:27;99551.74;;;23.13;52.76
58785;BME280;44557;51.862;19.378;2022-07-21T05:06:28;99549.99;;;23.07;52.83
58785;BME280;44557;51.862;19.378;2022-07-21T05:07:30;99556.67;;;23.06;52.62
58785;BME280;44557;51.862;19.378;2022-07-21T05:08:31;99548.18;;;23.10;52.45
58785;BME280;44557;51.862;19.378;2022-07-21T05:09:33;99540.04;;;23.27;52.48
58785;BME280;44557;51.862;19.378;2022-07-21T05:10:34;99541.04;;;23.24;52.37
58785;BME280;44557;51.862;19.378;2022-07-21T05:11:36;99542.31;;;23.20;52.27
58785;BME280;44557;51.862;19.378;2022-07-21T05:12:37;99537.11;;;23.30;52.11
58785;BME280;44557;51.862;19.378;2022-07-21T05:13:39;99547.32;;;23.29;51.89
58785;BME280;44557;51.862;19.378;2022-07-21T05:14:40;99538.91;;;23.27;52.33
58785;BME280;44557;51.862;19.378;2022-07-21T05:15:42;99543.89;;;23.27;52.29
58785;BME280;44557;51.862;19.378;2022-07-21T05:16:43;99546.46;;;23.22;52.13
58785;BME280;44557;51.862;19.378;2022-07-21T05:17:45;99545.52;;;23.21;52.07
58785;BME280;44557;51.862;19.378;2022-07-21T05:18:47;99546.17;;;23.24;52.06
58785;BME280;44557;51.862;19.378;2022-07-21T05:19:48;99545.27;;;23.16;51.94
58785;BME280;44557;51.862;19.378;2022-07-21T05:20:52;99540.83;;;23.27;52.08
58785;BME280;44557;51.862;19.378;2022-07-21T05:21:53;99540.52;;;23.22;52.36
58785;BME280;44557;51.862;19.378;2022-07-21T05:22:55;99541.09;;;23.26;52.71
58785;BME280;44557;51.862;19.378;2022-07-21T05:23:56;99545.88;;;23.22;52.28
58785;BME280;44557;51.862;19.378;2022-07-21T05:24:58;99544.28;;;23.22;52.45
58785;BME280;44557;51.862;19.378;2022-07-21T05:25:59;99546.54;;;23.22;52.55